Time;durP1;ratioP1;P1;durP2;ratioP2;P2;SDS_P1;SDS_P2;PMS_P1;PMS_P2;Temp;Humidity;BMP_temperature;BMP_pressure;BME280_temperature;BME280_humidity;BME280_pressure;Samples;Min_cycle;Max_cycle;Signal;HPM_P1;HPM_P2
2021/09/24 00:00:51;;;;;;;9.93;6.15;;;;;;;;;;5018191;28;20156;-52
2021/09/24 00:03:17;;;;;;;10.02;6.45;;;;;;;;;;5018625;28;20048;-52
2021/09/24 00:05:43;;;;;;;9.77;6.38;;;;;;;;;;5018368;28;20104;-54
2021/09/24 00:08:11;;;;;;;10.63;7.60;;;;;;;;;;5018842;28;20043;-53
2021/09/24 00:10:38;;;;;;;16.65;9.82;;;;;;;;;;5018676;28;20036;-53
2021/09/24 00:13:04;;;;;;;16.58;9.10;;;;;;;;;;5018746;28;20086;-52
2021/09/24 00:15:33;;;;;;;12.43;6.82;;;;;;;;;;5018387;28;20033;-47
2021/09/24 00:18:01;;;;;;;30.83;18.73;;;;;;;;;;5018354;28;20021;-51
2021/09/24 00:20:29;;;;;;;12.30;7.63;;;;;;;;;;5018161;28;20336;-51
2021/09/24 00:22:55;;;;;;;16.52;8.98;;;;;;;;;;5018592;28;20040;-52
2021/09/24 00:25:21;;;;;;;11.48;7.13;;;;;;;;;;5017962;28;20425;-52
2021/09/24 00:27:48;;;;;;;19.58;11.27;;;;;;;;;;5018165;28;20370;-49
2021/09/24 00:30:14;;;;;;;20.85;11.93;;;;;;;;;;5017766;28;20025;-51
2021/09/24 00:32:43;;;;;;;21.95;12.80;;;;;;;;;;5018320;28;20017;-52
2021/09/24 00:35:09;;;;;;;9.68;6.55;;;;;;;;;;5032935;28;20040;-51
2021/09/24 00:37:35;;;;;;;10.63;6.95;;;;;;;;;;5018028;28;20025;-53
2021/09/24 00:40:01;;;;;;;13.07;7.53;;;;;;;;;;5018104;28;20098;-52
2021/09/24 00:42:30;;;;;;;15.10;9.70;;;;;;;;;;5017549;28;20720;-52
2021/09/24 00:44:56;;;;;;;13.65;7.63;;;;;;;;;;5054876;28;20028;-47
2021/09/24 00:47:22;;;;;;;12.95;7.28;;;;;;;;;;5072501;28;20031;-52
2021/09/24 00:49:49;;;;;;;14.18;7.50;;;;;;;;;;5073215;28;20032;-52
2021/09/24 00:52:17;;;;;;;14.65;8.55;;;;;;;;;;5072957;28;20082;-52
2021/09/24 00:54:45;;;;;;;18.40;10.13;;;;;;;;;;5073047;28;20024;-52
2021/09/24 00:57:13;;;;;;;21.30;12.45;;;;;;;;;;5073177;28;20045;-53
2021/09/24 00:59:39;;;;;;;11.23;7.82;;;;;;;;;;5073207;28;20050;-51
2021/09/24 01:02:06;;;;;;;12.95;7.72;;;;;;;;;;5072980;28;20033;-53
2021/09/24 01:04:32;;;;;;;12.25;7.25;;;;;;;;;;5072874;28;20024;-51
2021/09/24 01:06:58;;;;;;;18.08;10.48;;;;;;;;;;5073037;28;20037;-52
2021/09/24 01:09:25;;;;;;;17.48;9.68;;;;;;;;;;5073059;28;20058;-52
2021/09/24 01:11:51;;;;;;;10.77;7.15;;;;;;;;;;5073190;28;20031;-53
2021/09/24 01:14:18;;;;;;;14.38;8.55;;;;;;;;;;5072890;28;20507;-52
2021/09/24 01:16:46;;;;;;;13.95;8.13;;;;;;;;;;5072882;28;20422;-52
2021/09/24 01:19:14;;;;;;;29.10;15.77;;;;;;;;;;5071514;28;20369;-53
2021/09/24 01:21:42;;;;;;;13.35;8.18;;;;;;;;;;5072846;28;20021;-50
2021/09/24 01:24:09;;;;;;;21.63;12.18;;;;;;;;;;5072867;28;20116;-53
2021/09/24 01:26:35;;;;;;;11.90;6.95;;;;;;;;;;5073124;28;20074;-52
2021/09/24 01:29:01;;;;;;;13.90;9.15;;;;;;;;;;5072794;28;20052;-52
2021/09/24 01:31:30;;;;;;;13.30;7.40;;;;;;;;;;5072949;28;20033;-52
2021/09/24 01:33:56;;;;;;;22.25;12.65;;;;;;;;;;5072810;28;20029;-50
2021/09/24 01:36:22;;;;;;;13.60;7.47;;;;;;;;;;5072685;28;20024;-51
2021/09/24 01:38:48;;;;;;;14.05;8.32;;;;;;;;;;5072649;28;20056;-52
2021/09/24 01:41:14;;;;;;;21.85;12.50;;;;;;;;;;5072760;28;20024;-51
2021/09/24 01:43:40;;;;;;;20.20;11.88;;;;;;;;;;5072708;28;20044;-51
2021/09/24 01:46:06;;;;;;;28.10;13.48;;;;;;;;;;5072936;28;20093;-53
2021/09/24 01:48:33;;;;;;;23.77;13.75;;;;;;;;;;5072655;28;20052;-50
2021/09/24 01:50:59;;;;;;;30.20;15.48;;;;;;;;;;5072616;28;20483;-51
2021/09/24 01:53:27;;;;;;;17.48;11.02;;;;;;;;;;5072648;28;20153;-54
2021/09/24 01:55:53;;;;;;;20.83;8.80;;;;;;;;;;5073027;28;20025;-55
2021/09/24 01:58:19;;;;;;;17.35;10.38;;;;;;;;;;5073567;28;20048;-54
2021/09/24 02:00:49;;;;;;;14.73;7.88;;;;;;;;;;5076534;28;20107;-55
2021/09/24 02:03:15;;;;;;;19.30;11.52;;;;;;;;;;5076434;28;20064;-53
2021/09/24 02:05:41;;;;;;;18.00;11.05;;;;;;;;;;5076158;28;20490;-54
2021/09/24 02:08:10;;;;;;;21.20;10.35;;;;;;;;;;5076044;28;20048;-54
2021/09/24 02:10:36;;;;;;;16.42;9.15;;;;;;;;;;5075954;28;20023;-53
2021/09/24 02:13:03;;;;;;;10.52;7.78;;;;;;;;;;5075948;28;20564;-53
2021/09/24 02:15:32;;;;;;;13.85;7.57;;;;;;;;;;5076109;28;20029;-54
2021/09/24 02:17:58;;;;;;;14.23;6.82;;;;;;;;;;5075821;28;20028;-52
2021/09/24 02:20:24;;;;;;;12.52;6.90;;;;;;;;;;5075933;28;20027;-51
2021/09/24 02:22:50;;;;;;;12.90;7.75;;;;;;;;;;5075607;28;20369;-51
2021/09/24 02:25:16;;;;;;;12.63;8.63;;;;;;;;;;5075564;28;20048;-52
2021/09/24 02:27:42;;;;;;;13.63;8.38;;;;;;;;;;5075641;28;20025;-52
2021/09/24 02:30:09;;;;;;;13.27;8.43;;;;;;;;;;5075652;28;20027;-53
2021/09/24 02:32:35;;;;;;;20.35;12.35;;;;;;;;;;5075672;28;20029;-50
2021/09/24 02:35:03;;;;;;;29.80;17.95;;;;;;;;;;5075440;28;20029;-49
2021/09/24 02:37:32;;;;;;;17.08;10.95;;;;;;;;;;5075698;28;20035;-52
2021/09/24 02:39:58;;;;;;;13.65;8.80;;;;;;;;;;5075428;28;20029;-52
2021/09/24 02:42:24;;;;;;;12.95;8.70;;;;;;;;;;5075481;28;20028;-52
2021/09/24 02:44:50;;;;;;;17.67;10.80;;;;;;;;;;5075394;28;20029;-51
2021/09/24 02:47:16;;;;;;;20.83;11.95;;;;;;;;;;5075485;28;20058;-50
2021/09/24 02:49:44;;;;;;;17.38;9.55;;;;;;;;;;5075342;28;20032;-50
2021/09/24 02:52:10;;;;;;;18.42;11.65;;;;;;;;;;5075552;28;20100;-50
2021/09/24 02:54:36;;;;;;;16.65;9.63;;;;;;;;;;5075327;28;20028;-52
2021/09/24 02:57:02;;;;;;;15.55;9.85;;;;;;;;;;5075169;28;20023;-52
2021/09/24 02:59:28;;;;;;;17.42;9.95;;;;;;;;;;5075200;28;20048;-48
2021/09/24 03:01:57;;;;;;;16.38;9.68;;;;;;;;;;5075219;28;20028;-49
2021/09/24 03:04:23;;;;;;;15.23;9.57;;;;;;;;;;5075267;28;20075;-51
2021/09/24 03:06:49;;;;;;;15.77;10.48;;;;;;;;;;5074846;28;20020;-52
2021/09/24 03:09:15;;;;;;;22.23;10.98;;;;;;;;;;5074868;28;20503;-52
2021/09/24 03:11:44;;;;;;;15.00;8.73;;;;;;;;;;5074065;28;20025;-51
2021/09/24 03:14:10;;;;;;;16.10;9.52;;;;;;;;;;5074652;28;20522;-52
2021/09/24 03:16:37;;;;;;;15.27;10.45;;;;;;;;;;5074748;28;20078;-51
2021/09/24 03:19:04;;;;;;;20.90;10.82;;;;;;;;;;5074647;28;20028;-52
2021/09/24 03:21:30;;;;;;;15.93;10.23;;;;;;;;;;5074657;28;20450;-52
2021/09/24 03:23:56;;;;;;;15.65;9.45;;;;;;;;;;5074424;28;20056;-52
2021/09/24 03:26:22;;;;;;;17.25;8.98;;;;;;;;;;5074645;28;20074;-52
2021/09/24 03:28:48;;;;;;;18.20;9.70;;;;;;;;;;5074502;28;20032;-52
2021/09/24 03:31:15;;;;;;;13.88;9.80;;;;;;;;;;5074445;28;20048;-52
2021/09/24 03:33:42;;;;;;;16.98;9.32;;;;;;;;;;5074620;28;20439;-52
2021/09/24 03:36:08;;;;;;;15.23;9.68;;;;;;;;;;5074277;28;20119;-52
2021/09/24 03:38:34;;;;;;;18.38;10.95;;;;;;;;;;5074402;28;20025;-51
2021/09/24 03:41:00;;;;;;;49.10;32.30;;;;;;;;;;5074498;28;20457;-48
2021/09/24 03:43:26;;;;;;;59.13;39.25;;;;;;;;;;5074186;28;20392;-52
2021/09/24 03:45:52;;;;;;;39.97;26.25;;;;;;;;;;5074267;28;20111;-52
2021/09/24 03:48:18;;;;;;;50.67;32.22;;;;;;;;;;5074387;28;20059;-52
2021/09/24 03:50:44;;;;;;;48.28;33.85;;;;;;;;;;5074138;28;20028;-53
2021/09/24 03:53:11;;;;;;;42.58;27.10;;;;;;;;;;5073947;28;20480;-54
2021/09/24 03:55:37;;;;;;;36.00;25.48;;;;;;;;;;5074214;28;20031;-53
2021/09/24 03:58:03;;;;;;;35.47;21.33;;;;;;;;;;5074033;28;20565;-51
2021/09/24 04:00:29;;;;;;;23.77;17.33;;;;;;;;;;5072570;28;20056;-51
2021/09/24 04:02:55;;;;;;;23.83;16.05;;;;;;;;;;5073796;28;20494;-52
2021/09/24 04:05:21;;;;;;;21.83;14.90;;;;;;;;;;5073956;28;20028;-52
2021/09/24 04:07:47;;;;;;;27.00;16.30;;;;;;;;;;5073707;28;20025;-49
2021/09/24 04:10:16;;;;;;;23.52;15.20;;;;;;;;;;5073792;28;20082;-52
2021/09/24 04:12:42;;;;;;;24.55;13.13;;;;;;;;;;5072352;28;20043;-52
2021/09/24 04:15:11;;;;;;;29.30;15.63;;;;;;;;;;5073656;28;20528;-53
2021/09/24 04:17:37;;;;;;;24.67;16.02;;;;;;;;;;5073522;28;20024;-49
2021/09/24 04:20:03;;;;;;;30.15;18.92;;;;;;;;;;5055627;28;20024;-50
2021/09/24 04:22:29;;;;;;;43.13;25.38;;;;;;;;;;5052512;28;20056;-49
2021/09/24 04:24:56;;;;;;;28.50;14.55;;;;;;;;;;5053504;28;20104;-49
2021/09/24 04:27:22;;;;;;;44.60;24.55;;;;;;;;;;5053695;28;20033;-49
2021/09/24 04:29:48;;;;;;;36.70;20.30;;;;;;;;;;5053581;28;20060;-48
2021/09/24 04:32:14;;;;;;;49.55;24.17;;;;;;;;;;5053512;28;20092;-50
2021/09/24 04:34:40;;;;;;;51.50;25.73;;;;;;;;;;5053400;28;20127;-49
2021/09/24 04:37:06;;;;;;;41.85;23.58;;;;;;;;;;5053274;28;20029;-49
2021/09/24 04:39:32;;;;;;;46.78;24.95;;;;;;;;;;5053521;28;20025;-48
2021/09/24 04:41:59;;;;;;;46.85;25.90;;;;;;;;;;5053413;28;20476;-48
2021/09/24 04:44:25;;;;;;;36.63;23.35;;;;;;;;;;5035415;28;20052;-50
2021/09/24 04:46:52;;;;;;;39.08;21.95;;;;;;;;;;5053357;28;20046;-51
2021/09/24 04:49:18;;;;;;;46.35;26.80;;;;;;;;;;5053176;28;20485;-48
2021/09/24 04:51:44;;;;;;;36.25;21.38;;;;;;;;;;5053119;28;20100;-45
2021/09/24 04:54:10;;;;;;;22.40;14.48;;;;;;;;;;5052191;28;20439;-48
2021/09/24 04:56:38;;;;;;;34.45;20.05;;;;;;;;;;5053204;28;20021;-48
2021/09/24 04:59:05;;;;;;;26.08;15.65;;;;;;;;;;5053062;28;20552;-49
2021/09/24 05:01:31;;;;;;;24.02;14.30;;;;;;;;;;5053311;28;20032;-46
2021/09/24 05:03:57;;;;;;;29.90;16.70;;;;;;;;;;5052816;28;20044;-48
2021/09/24 05:06:23;;;;;;;22.80;14.40;;;;;;;;;;5053192;28;20495;-49
2021/09/24 05:08:51;;;;;;;23.23;13.60;;;;;;;;;;5052924;28;20033;-50
2021/09/24 05:11:20;;;;;;;21.73;12.82;;;;;;;;;;5053227;28;20409;-49
2021/09/24 05:13:46;;;;;;;20.70;12.05;;;;;;;;;;5052956;28;20048;-49
2021/09/24 05:16:12;;;;;;;23.73;14.43;;;;;;;;;;5053085;28;20022;-48
2021/09/24 05:18:38;;;;;;;19.63;11.68;;;;;;;;;;5053006;28;20024;-49
2021/09/24 05:21:05;;;;;;;23.35;12.45;;;;;;;;;;5052895;28;20488;-48
2021/09/24 05:23:31;;;;;;;23.95;12.43;;;;;;;;;;5052788;28;20493;-47
2021/09/24 05:25:57;;;;;;;19.73;11.77;;;;;;;;;;5052916;28;20400;-49
2021/09/24 05:28:23;;;;;;;20.17;11.13;;;;;;;;;;5052831;28;20051;-50
2021/09/24 05:30:49;;;;;;;17.67;10.70;;;;;;;;;;5052794;28;20025;-50
2021/09/24 05:33:15;;;;;;;21.65;11.68;;;;;;;;;;5053535;28;20025;-50
2021/09/24 05:35:43;;;;;;;20.40;11.20;;;;;;;;;;5056728;28;20513;-51
2021/09/24 05:38:10;;;;;;;19.95;11.45;;;;;;;;;;5056581;28;20496;-49
2021/09/24 05:40:36;;;;;;;15.50;10.60;;;;;;;;;;5056589;28;20029;-46
2021/09/24 05:43:02;;;;;;;21.33;12.35;;;;;;;;;;5056650;28;20124;-52
2021/09/24 05:45:28;;;;;;;35.72;16.85;;;;;;;;;;5056601;28;20032;-52
2021/09/24 05:47:55;;;;;;;49.97;24.85;;;;;;;;;;5055491;28;20025;-51
2021/09/24 05:50:21;;;;;;;30.15;17.65;;;;;;;;;;5056522;28;20075;-49
2021/09/24 05:52:49;;;;;;;24.80;15.93;;;;;;;;;;5056352;28;20104;-50
2021/09/24 05:55:16;;;;;;;17.25;12.98;;;;;;;;;;5056459;28;20094;-50
2021/09/24 05:57:45;;;;;;;31.92;21.52;;;;;;;;;;5056228;28;20021;-49
2021/09/24 06:00:14;;;;;;;25.20;14.23;;;;;;;;;;5056201;28;20399;-49
2021/09/24 06:02:40;;;;;;;29.58;15.27;;;;;;;;;;5056499;28;20021;-48
2021/09/24 06:05:07;;;;;;;26.92;15.43;;;;;;;;;;5056045;28;20378;-50
2021/09/24 06:07:33;;;;;;;17.13;9.27;;;;;;;;;;5056107;28;20472;-50
2021/09/24 06:09:59;;;;;;;15.30;9.20;;;;;;;;;;5056334;28;20029;-49
2021/09/24 06:12:26;;;;;;;13.40;9.20;;;;;;;;;;5056227;28;20368;-49
2021/09/24 06:14:52;;;;;;;14.88;10.00;;;;;;;;;;5055984;28;20021;-50
2021/09/24 06:17:18;;;;;;;19.67;11.32;;;;;;;;;;5056077;28;20024;-49
2021/09/24 06:19:44;;;;;;;13.18;10.32;;;;;;;;;;5056154;28;20032;-51
2021/09/24 06:22:10;;;;;;;31.27;18.83;;;;;;;;;;5055835;28;20485;-50
2021/09/24 06:24:36;;;;;;;14.95;10.00;;;;;;;;;;5055843;28;20542;-49
2021/09/24 06:27:03;;;;;;;16.70;11.40;;;;;;;;;;5056105;28;20017;-48
2021/09/24 06:29:29;;;;;;;21.67;13.05;;;;;;;;;;5055988;28;20025;-50
2021/09/24 06:31:55;;;;;;;19.48;11.13;;;;;;;;;;5055786;28;20021;-51
2021/09/24 06:34:21;;;;;;;16.23;9.23;;;;;;;;;;5055674;28;20427;-50
2021/09/24 06:36:47;;;;;;;13.57;9.10;;;;;;;;;;5055704;28;20084;-50
2021/09/24 06:39:13;;;;;;;17.45;9.13;;;;;;;;;;5055914;28;20028;-51
2021/09/24 06:41:40;;;;;;;14.45;9.43;;;;;;;;;;5055682;28;20515;-50
2021/09/24 06:44:08;;;;;;;39.60;22.42;;;;;;;;;;5055368;28;20073;-60
2021/09/24 06:46:34;;;;;;;13.88;7.75;;;;;;;;;;5054721;28;20013;-52
2021/09/24 06:49:00;;;;;;;16.95;10.43;;;;;;;;;;5055509;28;20112;-52
2021/09/24 06:51:27;;;;;;;13.43;7.57;;;;;;;;;;5055425;28;20067;-54
2021/09/24 06:53:53;;;;;;;13.35;7.50;;;;;;;;;;5055362;28;20063;-53
2021/09/24 06:56:19;;;;;;;8.35;6.53;;;;;;;;;;5055645;28;20095;-53
2021/09/24 06:58:45;;;;;;;10.18;5.82;;;;;;;;;;5055424;28;20053;-51
2021/09/24 07:01:11;;;;;;;7.82;6.70;;;;;;;;;;5055299;28;20358;-51
2021/09/24 07:03:37;;;;;;;11.73;6.88;;;;;;;;;;5055002;28;20048;-51
2021/09/24 07:06:05;;;;;;;14.75;10.07;;;;;;;;;;5055185;28;20029;-52
2021/09/24 07:08:31;;;;;;;11.90;7.85;;;;;;;;;;5055062;28;20025;-52
2021/09/24 07:11:02;;;;;;;9.73;5.85;;;;;;;;;;5055151;28;20020;-52
2021/09/24 07:13:28;;;;;;;11.73;9.43;;;;;;;;;;5055051;28;20047;-52
2021/09/24 07:15:54;;;;;;;76.05;42.78;;;;;;;;;;5055034;28;20568;-48
2021/09/24 07:18:20;;;;;;;85.90;71.07;;;;;;;;;;5055024;28;20087;-50
2021/09/24 07:20:46;;;;;;;73.38;34.33;;;;;;;;;;5055130;28;20104;-54
2021/09/24 07:23:12;;;;;;;141.18;85.50;;;;;;;;;;5054546;28;20030;-54
2021/09/24 07:25:38;;;;;;;39.42;26.98;;;;;;;;;;5054852;28;20540;-51
2021/09/24 07:28:04;;;;;;;25.52;16.88;;;;;;;;;;5054746;28;20090;-56
2021/09/24 07:30:30;;;;;;;18.77;11.18;;;;;;;;;;5054539;28;20039;-53
2021/09/24 07:32:57;;;;;;;19.63;11.35;;;;;;;;;;5054502;28;20036;-55
2021/09/24 07:35:23;;;;;;;11.70;7.05;;;;;;;;;;5053081;28;20567;-55
2021/09/24 07:37:49;;;;;;;60.60;33.65;;;;;;;;;;5054387;28;20025;-57
2021/09/24 07:40:15;;;;;;;23.15;11.88;;;;;;;;;;5054669;28;20048;-57
2021/09/24 07:42:41;;;;;;;16.40;9.07;;;;;;;;;;5054386;28;20147;-54
2021/09/24 07:45:10;;;;;;;161.07;100.68;;;;;;;;;;5054633;28;20036;-58
2021/09/24 07:47:36;;;;;;;53.05;31.45;;;;;;;;;;5054584;28;20024;-51
2021/09/24 07:50:02;;;;;;;64.43;32.83;;;;;;;;;;5054206;28;20457;-50
2021/09/24 07:52:28;;;;;;;26.92;15.27;;;;;;;;;;5054237;28;20090;-54
2021/09/24 07:54:54;;;;;;;18.30;10.15;;;;;;;;;;5054495;28;20350;-53
2021/09/24 07:57:22;;;;;;;11.90;7.32;;;;;;;;;;5054260;28;20044;-46
2021/09/24 07:59:48;;;;;;;33.38;19.20;;;;;;;;;;5054321;28;20401;-46
2021/09/24 08:02:15;;;;;;;34.70;19.20;;;;;;;;;;5054077;28;20078;-46
2021/09/24 08:04:41;;;;;;;18.55;9.40;;;;;;;;;;5053830;28;20029;-51
2021/09/24 08:07:08;;;;;;;13.80;8.55;;;;;;;;;;5054002;28;20105;-46
2021/09/24 08:09:34;;;;;;;15.63;7.72;;;;;;;;;;5054176;28;20052;-48
2021/09/24 08:12:00;;;;;;;27.00;10.65;;;;;;;;;;5053921;28;20033;-50
2021/09/24 08:14:26;;;;;;;86.93;35.67;;;;;;;;;;5053713;28;20018;-47
2021/09/24 08:16:52;;;;;;;31.80;16.50;;;;;;;;;;5053871;28;20605;-54
2021/09/24 08:19:19;;;;;;;59.60;29.65;;;;;;;;;;5053785;28;20025;-59
2021/09/24 08:21:45;;;;;;;75.25;42.28;;;;;;;;;;5053672;28;20033;-53
2021/09/24 08:24:11;;;;;;;94.57;48.05;;;;;;;;;;5053353;28;20049;-51
2021/09/24 08:26:37;;;;;;;40.67;22.98;;;;;;;;;;5053842;28;20021;-51
2021/09/24 08:29:03;;;;;;;14.73;5.72;;;;;;;;;;5053674;28;20070;-52
2021/09/24 08:31:30;;;;;;;12.05;6.70;;;;;;;;;;5053729;28;20025;-56
2021/09/24 08:33:58;;;;;;;27.00;10.63;;;;;;;;;;5053709;28;20029;-48
2021/09/24 08:36:27;;;;;;;16.10;9.90;;;;;;;;;;5053424;28;20032;-53
2021/09/24 08:38:53;;;;;;;14.88;7.65;;;;;;;;;;5052487;28;20402;-48
2021/09/24 08:41:25;;;;;;;33.92;17.40;;;;;;;;;;5053598;28;20025;-59
2021/09/24 08:43:53;;;;;;;21.80;11.57;;;;;;;;;;5053300;28;20064;-54
2021/09/24 08:46:20;;;;;;;69.07;35.63;;;;;;;;;;5053310;28;20150;-55
2021/09/24 08:48:46;;;;;;;104.82;58.88;;;;;;;;;;5053241;28;20048;-50
2021/09/24 08:51:12;;;;;;;763.05;563.50;;;;;;;;;;5053193;28;20036;-49
2021/09/24 08:53:40;;;;;;;46.67;31.90;;;;;;;;;;5053114;28;20029;-61
2021/09/24 08:56:07;;;;;;;39.20;26.40;;;;;;;;;;5053468;28;20063;-55
2021/09/24 08:58:36;;;;;;;128.27;78.32;;;;;;;;;;5053066;28;20473;-59
2021/09/24 09:01:02;;;;;;;93.18;57.33;;;;;;;;;;5053111;28;20021;-65
2021/09/24 09:03:42;;;;;;;107.50;72.55;;;;;;;;;;5053078;28;20033;-55
2021/09/24 09:06:09;;;;;;;41.83;26.43;;;;;;;;;;5053064;28;20032;-60
2021/09/24 09:08:35;;;;;;;57.13;33.53;;;;;;;;;;5054666;28;20246;-57
2021/09/24 09:11:17;;;;;;;30.58;19.08;;;;;;;;;;5057152;28;20025;-51
2021/09/24 09:13:55;;;;;;;96.70;61.53;;;;;;;;;;5057278;28;20025;-55
2021/09/24 09:16:24;;;;;;;40.97;24.00;;;;;;;;;;5057089;28;20423;-55
2021/09/24 09:18:51;;;;;;;162.88;104.05;;;;;;;;;;5057070;28;20610;-52
2021/09/24 09:21:21;;;;;;;46.05;29.00;;;;;;;;;;5057084;28;20048;-51
2021/09/24 09:23:54;;;;;;;30.20;19.52;;;;;;;;;;5056943;28;20055;-56
2021/09/24 09:26:21;;;;;;;66.30;43.17;;;;;;;;;;5056993;28;20108;-57
2021/09/24 09:28:52;;;;;;;72.32;44.17;;;;;;;;;;5057371;28;20021;-60
2021/09/24 09:31:26;;;;;;;186.55;94.50;;;;;;;;;;5056870;28;20025;-51
2021/09/24 09:33:53;;;;;;;57.22;29.00;;;;;;;;;;5056716;28;20057;-55
2021/09/24 09:36:30;;;;;;;310.90;209.10;;;;;;;;;;5056766;28;20473;-54
2021/09/24 09:38:56;;;;;;;79.05;48.03;;;;;;;;;;5056776;28;20032;-54
2021/09/24 09:41:23;;;;;;;52.72;30.33;;;;;;;;;;5056626;28;20417;-50
2021/09/24 09:43:54;;;;;;;22.25;13.23;;;;;;;;;;5056548;28;20108;-57
2021/09/24 09:46:24;;;;;;;17.10;9.80;;;;;;;;;;5056648;28;20504;-59
2021/09/24 09:49:00;;;;;;;6.57;4.40;;;;;;;;;;5056691;28;20021;-60
2021/09/24 09:51:26;;;;;;;26.77;13.80;;;;;;;;;;5056848;28;20025;-59
2021/09/24 09:53:55;;;;;;;25.83;12.30;;;;;;;;;;5056721;28;20119;-62
2021/09/24 09:56:21;;;;;;;43.42;32.45;;;;;;;;;;5056398;28;20173;-57
2021/09/24 09:58:47;;;;;;;32.25;22.05;;;;;;;;;;5056468;28;20032;-61
2021/09/24 10:01:18;;;;;;;73.40;49.20;;;;;;;;;;5056222;28;20100;-61
2021/09/24 10:03:56;;;;;;;62.00;40.80;;;;;;;;;;5056033;28;20044;-63
2021/09/24 10:06:24;;;;;;;53.15;26.77;;;;;;;;;;5056222;28;20025;-48
2021/09/24 10:08:53;;;;;;;23.88;15.35;;;;;;;;;;5056136;28;20106;-55
2021/09/24 10:11:20;;;;;;;45.85;30.00;;;;;;;;;;5055009;28;20441;-52
2021/09/24 10:14:03;;;;;;;324.08;232.73;;;;;;;;;;5056110;28;20062;-48
2021/09/24 10:16:30;;;;;;;41.78;24.20;;;;;;;;;;5056278;28;20029;-60
2021/09/24 10:18:57;;;;;;;47.30;25.48;;;;;;;;;;5055952;28;20025;-59
2021/09/24 10:21:23;;;;;;;75.40;50.03;;;;;;;;;;5055974;28;20397;-54
2021/09/24 10:23:50;;;;;;;235.80;163.30;;;;;;;;;;5054550;28;20429;-59
2021/09/24 10:26:18;;;;;;;59.70;32.67;;;;;;;;;;5055947;28;20036;-49
2021/09/24 10:28:45;;;;;;;112.38;67.70;;;;;;;;;;5055871;28;20029;-60
2021/09/24 10:31:15;;;;;;;15.90;9.38;;;;;;;;;;5055546;28;20051;-62
2021/09/24 10:34:01;;;;;;;28.65;16.92;;;;;;;;;;5055851;28;20053;-56
2021/09/24 10:36:33;;;;;;;17.55;11.80;;;;;;;;;;5055585;28;20063;-60
2021/09/24 10:39:01;;;;;;;34.10;20.00;;;;;;;;;;5055629;28;20017;-61
2021/09/24 10:41:27;;;;;;;25.10;12.75;;;;;;;;;;5054253;28;20029;-60
2021/09/24 10:43:58;;;;;;;20.80;8.77;;;;;;;;;;5055450;28;20037;-59
2021/09/24 10:46:43;;;;;;;12.38;5.65;;;;;;;;;;5055499;28;20400;-60
2021/09/24 10:49:12;;;;;;;20.42;12.20;;;;;;;;;;5055435;28;20025;-54
2021/09/24 10:51:39;;;;;;;12.85;5.88;;;;;;;;;;5055322;28;20025;-50
2021/09/24 10:54:16;;;;;;;8.30;3.83;;;;;;;;;;5055321;28;20025;-57
2021/09/24 10:56:58;;;;;;;13.77;7.15;;;;;;;;;;5055208;28;20385;-48
2021/09/24 10:59:25;;;;;;;12.65;7.68;;;;;;;;;;5055158;28;20029;-57
2021/09/24 11:01:52;;;;;;;754.45;607.42;;;;;;;;;;5055182;28;20013;-59
2021/09/24 11:04:20;;;;;;;34.15;20.08;;;;;;;;;;5055003;28;20044;-54
2021/09/24 11:06:47;;;;;;;412.00;331.40;;;;;;;;;;5053920;28;20558;-61
2021/09/24 11:09:18;;;;;;;212.40;152.40;;;;;;;;;;5054884;28;20029;-62
2021/09/24 11:11:45;;;;;;;23.58;12.68;;;;;;;;;;5055017;28;20083;-60
2021/09/24 11:14:26;;;;;;;30.58;18.67;;;;;;;;;;5054672;28;20029;-66
2021/09/24 11:16:53;;;;;;;;;;;;;;;;;;5055455;28;20021;-59
2021/09/24 11:19:28;;;;;;;29.05;16.80;;;;;;;;;;5054877;28;19911;-60
2021/09/24 11:22:00;;;;;;;9.15;5.82;;;;;;;;;;5054967;28;20174;-63
2021/09/24 11:24:28;;;;;;;15.15;9.65;;;;;;;;;;5054545;28;20136;-63
2021/09/24 11:26:55;;;;;;;11.13;5.85;;;;;;;;;;5054616;28;20024;-63
2021/09/24 11:29:27;;;;;;;11.35;6.05;;;;;;;;;;5054860;28;20029;-64
2021/09/24 11:31:54;;;;;;;8.68;5.53;;;;;;;;;;5054189;28;20424;-60
2021/09/24 11:34:43;;;;;;;7.18;3.67;;;;;;;;;;5054555;28;20083;-61
2021/09/24 11:37:09;;;;;;;11.27;3.50;;;;;;;;;;5054735;28;20025;-53
2021/09/24 11:39:36;;;;;;;7.32;3.83;;;;;;;;;;5054401;28;20067;-54
2021/09/24 11:42:03;;;;;;;6.45;3.10;;;;;;;;;;5054604;28;20036;-60
2021/09/24 11:44:29;;;;;;;11.48;3.10;;;;;;;;;;5054338;28;20094;-64
2021/09/24 11:46:56;;;;;;;11.98;6.28;;;;;;;;;;5054369;28;20488;-65
2021/09/24 11:49:22;;;;;;;197.77;142.48;;;;;;;;;;5054011;28;20033;-55
2021/09/24 11:51:58;;;;;;;31.13;20.30;;;;;;;;;;5054011;28;20025;-61
2021/09/24 11:54:24;;;;;;;869.00;592.15;;;;;;;;;;5054439;28;20021;-63
2021/09/24 11:56:50;;;;;;;71.43;48.70;;;;;;;;;;5054280;28;20109;-60
2021/09/24 11:59:16;;;;;;;76.18;53.58;;;;;;;;;;5054057;28;20040;-59
2021/09/24 12:01:44;;;;;;;19.92;13.27;;;;;;;;;;5054041;28;20052;-62
2021/09/24 12:04:12;;;;;;;21.50;15.05;;;;;;;;;;5054222;28;20389;-63
2021/09/24 12:06:39;;;;;;;51.95;34.42;;;;;;;;;;5024706;28;20136;-58
2021/09/24 12:09:08;;;;;;;176.90;136.45;;;;;;;;;;5022639;28;20746;-58
2021/09/24 12:11:46;;;;;;;135.60;74.50;;;;;;;;;;5022837;28;20374;-60
2021/09/24 12:14:14;;;;;;;36.83;22.85;;;;;;;;;;5022718;28;20126;-53
2021/09/24 12:16:41;;;;;;;49.10;34.95;;;;;;;;;;5022653;28;20132;-58
2021/09/24 12:19:09;;;;;;;12.48;8.30;;;;;;;;;;5021535;28;20033;-54
2021/09/24 12:21:38;;;;;;;20.88;8.15;;;;;;;;;;5021492;28;20358;-56
2021/09/24 12:24:18;;;;;;;11.27;8.00;;;;;;;;;;5020929;28;20068;-54
2021/09/24 12:26:52;;;;;;;7.75;4.15;;;;;;;;;;5033939;28;20033;-62
2021/09/24 12:29:22;;;;;;;9.65;6.00;;;;;;;;;;5033652;28;20021;-63
2021/09/24 12:31:56;;;;;;;9.18;4.00;;;;;;;;;;5033796;28;20036;-62
2021/09/24 12:34:39;;;;;;;10.30;5.95;;;;;;;;;;5033849;28;20022;-62
2021/09/24 12:37:05;;;;;;;4.82;3.35;;;;;;;;;;5032433;28;20519;-61
2021/09/24 12:39:33;;;;;;;6.25;3.78;;;;;;;;;;5033631;28;20485;-63
2021/09/24 12:42:17;;;;;;;7.57;4.95;;;;;;;;;;5033417;28;20112;-61
2021/09/24 12:44:52;;;;;;;5.60;3.10;;;;;;;;;;5032968;28;20057;-62
2021/09/24 12:47:22;;;;;;;5.20;3.63;;;;;;;;;;5033329;28;20028;-63
2021/09/24 12:49:48;;;;;;;8.98;4.85;;;;;;;;;;5033584;28;20036;-62
2021/09/24 12:52:15;;;;;;;7.63;3.17;;;;;;;;;;5033513;28;20381;-68
2021/09/24 12:54:41;;;;;;;5.53;3.88;;;;;;;;;;5048386;28;20025;-55
2021/09/24 12:57:08;;;;;;;7.15;4.88;;;;;;;;;;5052301;28;20032;-62
2021/09/24 12:59:35;;;;;;;6.75;3.95;;;;;;;;;;5052708;28;20106;-62
2021/09/24 13:02:02;;;;;;;5.97;3.42;;;;;;;;;;5050496;28;20090;-61
2021/09/24 13:04:29;;;;;;;7.15;3.17;;;;;;;;;;5052352;28;20029;-56
2021/09/24 13:06:56;;;;;;;7.35;3.70;;;;;;;;;;5053034;28;20029;-56
2021/09/24 13:09:23;;;;;;;11.25;6.10;;;;;;;;;;5052812;28;20029;-51
2021/09/24 13:11:49;;;;;;;12.82;4.43;;;;;;;;;;5052628;28;20013;-62
2021/09/24 13:14:16;;;;;;;6.72;4.15;;;;;;;;;;5052850;28;20032;-62
2021/09/24 13:16:42;;;;;;;8.88;2.75;;;;;;;;;;5052624;28;20025;-62
2021/09/24 13:19:08;;;;;;;5.13;3.38;;;;;;;;;;5052570;28;20029;-63
2021/09/24 13:21:35;;;;;;;9.95;6.25;;;;;;;;;;5052551;28;20602;-62
2021/09/24 13:24:01;;;;;;;7.53;3.88;;;;;;;;;;5052380;28;20045;-57
2021/09/24 13:26:28;;;;;;;11.02;5.93;;;;;;;;;;5053013;28;20104;-62
2021/09/24 13:28:54;;;;;;;7.97;4.38;;;;;;;;;;5052902;28;20028;-63
2021/09/24 13:31:20;;;;;;;9.05;5.10;;;;;;;;;;5052786;28;20021;-62
2021/09/24 13:33:47;;;;;;;15.52;7.15;;;;;;;;;;5052896;28;20481;-56
2021/09/24 13:36:13;;;;;;;19.10;8.82;;;;;;;;;;5053037;28;20103;-63
2021/09/24 13:38:39;;;;;;;15.45;10.45;;;;;;;;;;5052819;28;20025;-57
2021/09/24 13:41:05;;;;;;;17.95;9.15;;;;;;;;;;5053341;28;20083;-63
2021/09/24 13:43:31;;;;;;;17.65;10.98;;;;;;;;;;5052594;28;20124;-62
2021/09/24 13:46:00;;;;;;;9.85;7.07;;;;;;;;;;5052821;28;20541;-60
2021/09/24 13:48:26;;;;;;;8.75;5.72;;;;;;;;;;5052774;28;20508;-57
2021/09/24 13:50:52;;;;;;;9.23;6.80;;;;;;;;;;5052862;28;20033;-51
2021/09/24 13:53:18;;;;;;;4.03;3.10;;;;;;;;;;5052653;28;20025;-53
2021/09/24 13:55:47;;;;;;;5.25;3.38;;;;;;;;;;5055697;28;20056;-51
2021/09/24 13:58:13;;;;;;;8.13;2.95;;;;;;;;;;5056139;28;20043;-51
2021/09/24 14:00:39;;;;;;;8.32;3.30;;;;;;;;;;5056396;28;20473;-54
2021/09/24 14:03:05;;;;;;;6.70;4.25;;;;;;;;;;5056042;28;20039;-55
2021/09/24 14:05:31;;;;;;;6.18;4.03;;;;;;;;;;5056166;28;20439;-56
2021/09/24 14:07:59;;;;;;;3.70;2.70;;;;;;;;;;5055762;28;20115;-51
2021/09/24 14:10:26;;;;;;;4.18;2.55;;;;;;;;;;5053346;28;20025;-56
2021/09/24 14:12:53;;;;;;;5.53;2.95;;;;;;;;;;5055537;28;20036;-53
2021/09/24 14:15:20;;;;;;;7.10;2.70;;;;;;;;;;5055566;28;20021;-56
2021/09/24 14:17:46;;;;;;;7.43;2.72;;;;;;;;;;5055599;28;20029;-52
2021/09/24 14:20:13;;;;;;;9.05;3.30;;;;;;;;;;5055595;28;20025;-55
2021/09/24 14:22:41;;;;;;;7.65;2.95;;;;;;;;;;5055466;28;20040;-57
2021/09/24 14:25:07;;;;;;;10.32;5.40;;;;;;;;;;5055259;28;20416;-53